TimeEDT,TemperatureF,Dew PointF,Humidity,Sea Level PressureIn,VisibilityMPH,Wind Direction,Wind SpeedMPH,Gust SpeedMPH,PrecipitationIn,Events,Conditions,WindDirDegrees,DateUTC
12:52 AM,39.9,25.0,55,30.30,10.0,ENE,15.0,-,N/A,,Partly Cloudy,60,2012-03-27 04:52:00
1:52 AM,39.0,25.0,57,30.30,10.0,ENE,17.3,-,N/A,,Clear,60,2012-03-27 05:52:00
2:52 AM,37.9,24.1,57,30.30,10.0,ENE,20.7,-,N/A,,Partly Cloudy,70,2012-03-27 06:52:00
4:52 AM,35.1,23.0,61,30.30,10.0,East,9.2,-,N/A,,Partly Cloudy,80,2012-03-27 08:52:00
5:52 AM,35.1,23.0,61,30.30,10.0,East,8.1,-,N/A,,Scattered Clouds,90,2012-03-27 09:52:00
6:52 AM,34.0,21.0,59,30.30,10.0,ESE,8.1,-,N/A,,Scattered Clouds,110,2012-03-27 10:52:00
7:52 AM,34.0,21.0,59,30.32,10.0,ESE,9.2,-,N/A,,Mostly Cloudy,110,2012-03-27 11:52:00
8:52 AM,37.0,21.9,54,30.32,10.0,East,9.2,-,N/A,,Mostly Cloudy,100,2012-03-27 12:52:00
9:52 AM,39.9,23.0,51,30.31,10.0,East,10.4,-,N/A,,Mostly Cloudy,100,2012-03-27 13:52:00
10:52 AM,45.0,25.0,46,30.29,10.0,SE,6.9,-,N/A,,Mostly Cloudy,140,2012-03-27 14:52:00
11:52 AM,48.9,28.0,44,30.27,10.0,SSE,5.8,-,N/A,,Scattered Clouds,150,2012-03-27 15:52:00
12:52 PM,53.1,28.9,40,30.25,10.0,SE,4.6,-,N/A,,Partly Cloudy,140,2012-03-27 16:52:00
1:52 PM,57.0,28.9,34,30.21,10.0,SE,8.1,-,N/A,,Partly Cloudy,130,2012-03-27 17:52:00
2:52 PM,61.0,30.9,32,30.18,10.0,SE,8.1,-,N/A,,Partly Cloudy,140,2012-03-27 18:52:00
3:52 PM,63.0,30.9,30,30.15,10.0,South,8.1,-,N/A,,Partly Cloudy,170,2012-03-27 19:52:00
4:52 PM,64.0,32.0,30,30.13,10.0,SSE,6.9,-,N/A,,Partly Cloudy,150,2012-03-27 20:52:00
5:52 PM,64.9,37.0,36,30.10,10.0,SSE,10.4,-,N/A,,Scattered Clouds,160,2012-03-27 21:52:00
6:52 PM,61.0,37.9,42,30.08,10.0,South,9.2,-,N/A,,Mostly Cloudy,170,2012-03-27 22:52:00
7:52 PM,59.0,35.1,41,30.06,10.0,SSE,11.5,-,N/A,,Mostly Cloudy,150,2012-03-27 23:52:00
8:52 PM,57.0,36.0,45,30.04,10.0,South,9.2,-,N/A,,Mostly Cloudy,170,2012-03-28 00:52:00
9:52 PM,55.0,37.0,51,30.03,10.0,South,9.2,-,N/A,,Scattered Clouds,180,2012-03-28 01:52:00
10:52 PM,54.0,37.9,55,30.02,10.0,South,6.9,-,N/A,,Partly Cloudy,190,2012-03-28 02:52:00
11:52 PM,55.9,37.0,49,30.00,10.0,South,8.1,-,N/A,,Mostly Cloudy,190,2012-03-28 03:52:00